グアダラハラ の空港の天気 - METARとTAF

ドン・ミゲル・イダルゴ・イ・コスティージャ国際空港 ( MMGL / GDL ) - メキシコ ハリスコ州グアダラハラ
飛行場実況気象(Metar)
観測時間05/26 18:47 CDT (05/26 23:47 UTC)
風向・風速北西 5m/s
視程10km以上
天気現象
なし
気温32℃
湿度12%
気圧1004hPa
METARMMGL 262347Z 31010KT 8SM SKC 32/M01 A2999 RMK SLP040 57008 927
過去の天気等 Google飛行場航空写真 Wunderground天気予報

過去48時間のMETAR

飛行場予報(TAF)
発表時間: 5/26 17:15 CDT (5/26 22:15 UTC)
予報対象時間: 26日19時 CDT ~ 28日1時 CDT
風向・風速南西 4m/s
視程10km以上
天気現象煙霧 煙
なし
26日23時 CDT から
風向・風速南南西 3m/s
視程10km以上
天気現象煙霧
なし
27日13時 CDT から
風向・風速南東 5m/s
視程10km以上
なし
27日22時 CDT から
風向・風速南東 3m/s
視程10km以上
なし
TAF MMGL 262215Z 2700/2806 22008KT 6SM HZ FU SKC TX32/2721Z TN13/2712Z
FM270400 20005KT 6SM HZ SKC
FM271800 14010KT P6SM SKC
FM280300 14005KT P6SM SKC